Flight Track Log - Related Links

Times and Time Zones

All times are in EDT time to prevent confusion due to time zone crossing. See the ASQ5958 flight status page for this flight to view local times or setup timezone preferences in your user account.

Time Position Orientation Groundspeed Altitude Reporting Facility
EDT Latitude Longitude Course Direction KTS MPH feet Rate Location/Type
Fri 03:01:42 PM 43.1006 -76.0889 155° Southeast 167 192 1,100  Level Boston Center
Fri 03:02:19 PM 43.0761 -76.0731 155° Southeast 171 197 2,500 2,103 Climbing Boston Center
Fri 03:03:19 PM 43.0803 -76.1417 275° West 229 264 4,500 1,969 Climbing Boston Center
Fri 03:05:34 PM 43.1653 -76.3161 304° West 253 291 8,900 1,938 Climbing Cleveland Center
Fri 03:06:34 PM 43.1914 -76.4083 291° West 253 291 10,800 1,300 Climbing Cleveland Center
Fri 03:07:34 PM 43.1931 -76.5136 271° West 265 305 11,500 1,150 Climbing Cleveland Center
Fri 03:08:34 PM 43.1931 -76.6333 270° West 293 337 13,100 1,400 Climbing Cleveland Center
Fri 03:09:34 PM 43.1933 -76.7642 270° West 308 354 14,300 1,250 Climbing Cleveland Center
Fri 03:10:34 PM 43.1994 -76.8864 274° West 321 369 15,600 1,200 Climbing Cleveland Center
Fri 03:11:34 PM 43.1992 -77.0117 270° West 326 375 16,700 1,050 Climbing Cleveland Center
Fri 03:12:34 PM 43.1928 -77.1403 266° West 331 381 17,700 1,050 Climbing Cleveland Center
Fri 03:13:34 PM 43.1922 -77.2714 270° West 338 389 18,800 1,100 Climbing Cleveland Center
Fri 03:14:34 PM 43.1897 -77.4025 269° West 350 403 19,900 1,000 Climbing Cleveland Center
Fri 03:15:34 PM 43.1872 -77.5394 269° West 350 403 20,800 800 Climbing Cleveland Center
Fri 03:16:34 PM 43.1825 -77.6792 267° West 355 409 21,500 850 Climbing Cleveland Center
Fri 03:17:34 PM 43.1775 -77.8189 267° West 367 422 22,500 1,150 Climbing Cleveland Center
Fri 03:18:34 PM 43.1742 -77.9442 268° West 372 428 23,800 1,250 Climbing Cleveland Center
Fri 03:19:34 PM 43.1708 -78.0811 268° West 372 428 25,000 1,200 Climbing Cleveland Center
Fri 03:20:34 PM 43.1675 -78.2122 268° West 362 417 26,200 1,250 Climbing Cleveland Center
Fri 03:21:34 PM 43.1617 -78.3406 266° West 351 404 27,500 1,200 Climbing Cleveland Center
Fri 03:22:34 PM 43.1578 -78.4686 268° West 346 398 28,600 1,000 Climbing Cleveland Center
Fri 03:23:34 PM 43.1539 -78.5939 268° West 346 398 29,500 950 Climbing Cleveland Center
Fri 03:24:34 PM 43.1497 -78.7222 267° West 346 398 30,500 1,150 Climbing Cleveland Center
Fri 03:25:34 PM 43.1475 -78.8447 269° West 339 390 31,800 1,500 Climbing Cleveland Center
Fri 03:26:34 PM 43.1428 -78.9614 267° West 323 372 33,500 1,453 Climbing Cleveland Center
Fri 03:27:42 PM 43.1333 -79.0833 264° West 300 345 34,900 1,023 Climbing Toronto Center
Fri 03:28:43 PM 43.1167 -79.2000 259° West 290 334 35,700 550 Climbing Toronto Center
Fri 03:29:42 PM 43.1167 -79.2833 270° West 290 334 36,000 151 Climbing Toronto Center
Fri 03:30:42 PM 43.1167 -79.4333 270° West 310 357 36,000  Level Toronto Center
Fri 03:31:42 PM 43.1000 -79.5500 259° West 330 380 36,000  Level Toronto Center
Fri 03:32:42 PM 43.1000 -79.6833 270° West 340 391 36,000  Level Toronto Center
Fri 03:33:43 PM 43.1000 -79.8167 270° West 360 414 36,000  Level Toronto Center
Fri 03:34:43 PM 43.0833 -79.9500 260° West 370 426 36,000  Level Toronto Center
Fri 03:35:43 PM 43.0833 -80.0833 270° West 370 426 36,000  Level Toronto Center
Fri 03:36:43 PM 43.0833 -80.2500 270° West 360 414 36,000  Level Toronto Center
Fri 03:37:43 PM 43.0667 -80.3667 259° West 360 414 36,000  Level Toronto Center
Fri 03:38:43 PM 43.0667 -80.5000 270° West 360 414 36,000  Level Toronto Center
Fri 03:39:43 PM 43.0667 -80.6333 270° West 360 414 36,000  Level Toronto Center
Fri 03:40:43 PM 43.0500 -80.7667 260° West 360 414 36,000  Level Toronto Center
Fri 03:41:43 PM 43.0333 -80.9167 261° West 360 414 36,000  Level Toronto Center
Fri 03:42:43 PM 43.0167 -81.0500 260° West 360 414 36,000  Level Toronto Center
Fri 03:43:43 PM 43.0167 -81.1833 270° West 350 403 36,000  Level Toronto Center
Fri 03:44:43 PM 43.0167 -81.3167 270° West 360 414 36,000  Level Toronto Center
Fri 03:45:43 PM 43.0167 -81.4500 270° West 360 414 36,000  Level Toronto Center
Fri 03:46:43 PM 43.0167 -81.6000 270° West 360 414 36,000  Level Toronto Center
Fri 03:47:43 PM 43.0167 -81.7333 270° West 360 414 36,000  Level Toronto Center
Fri 03:48:43 PM 43.0167 -81.8667 270° West 360 414 36,000  Level Toronto Center
Fri 03:49:43 PM 43.0000 -82.0000 260° West 370 426 36,000  Level Toronto Center
Fri 03:50:43 PM 43.0000 -82.1333 270° West 370 426 36,000  Level Toronto Center
Fri 03:51:43 PM 43.0000 -82.3000 270° West 370 426 36,000  Level Toronto Center
Fri 03:52:43 PM 43.0000 -82.4167 270° West 360 414 36,000  Level Toronto Center
Fri 03:53:43 PM 43.0000 -82.5500 270° West 360 414 36,000 -100 Level Toronto Center
Fri 03:54:43 PM 42.9833 -82.6833 260° West 360 414 35,800 -550 Descending Toronto Center
Fri 03:55:43 PM 42.9833 -82.8167 270° West 360 414 34,900 -850 Descending Toronto Center
Fri 03:56:43 PM 42.9833 -82.9833 270° West 370 426 34,100 -850 Descending Toronto Center
Fri 03:57:43 PM 42.9833 -83.1167 270° West 370 426 33,200 -1,000 Descending Toronto Center
Fri 03:58:43 PM 42.9667 -83.2500 260° West 380 437 32,100 -600 Descending Toronto Center
Fri 03:59:43 PM 42.9667 -83.4000 270° West 380 437 32,000 -49 Descending Toronto Center
Fri 04:00:46 PM 42.9719 -83.5597 273° West 383 441 32,000  Level Cleveland Center
Fri 04:01:46 PM 42.9661 -83.7014 267° West 383 441 32,000  Level Cleveland Center
Fri 04:02:46 PM 42.9564 -83.8286 264° West 383 441 32,000  Level Cleveland Center
Fri 04:03:46 PM 42.9439 -83.9728 263° West 383 441 32,000  Level Cleveland Center
Fri 04:04:46 PM 42.9314 -84.1139 263° West 383 441 32,000  Level Cleveland Center
Fri 04:06:17 PM 42.9097 -84.3267 262° West 383 441 32,000  Level Chicago Center
Fri 04:07:19 PM 42.8950 -84.4722 262° West 387 445 32,000  Level Chicago Center
Fri 04:08:21 PM 42.8769 -84.6458 262° West 386 444 32,000  Level Chicago Center
Fri 04:09:23 PM 42.8622 -84.7922 262° West 389 448 32,000  Level Chicago Center
Fri 04:10:25 PM 42.8475 -84.9378 262° West 389 448 32,000 -48 Level Chicago Center
Fri 04:11:27 PM 42.8311 -85.0856 261° West 392 451 31,900 -581 Descending Chicago Center
Fri 04:12:29 PM 42.8147 -85.2342 261° West 395 455 30,800 -1,113 Descending Chicago Center
Fri 04:13:31 PM 42.7989 -85.3797 262° West 392 451 29,600 -1,306 Descending Chicago Center
Fri 04:14:33 PM 42.7817 -85.5258 261° West 391 450 28,100 -1,597 Descending Chicago Center
Fri 04:15:35 PM 42.7519 -85.6908 256° West 376 433 26,300 -1,645 Descending Chicago Center
Fri 04:16:37 PM 42.7269 -85.8272 256° West 371 427 24,700 -1,488 Descending Chicago Center
Fri 04:17:40 PM 42.7031 -85.9592 256° West 362 417 23,200 -1,440 Descending Chicago Center
Fri 04:18:42 PM 42.6794 -86.0875 256° West 352 405 21,700 -1,403 Descending Chicago Center
Fri 04:19:44 PM 42.6569 -86.2125 256° West 342 394 20,300 -823 Descending Chicago Center
Fri 04:20:46 PM 42.6333 -86.3378 256° West 342 394 20,000 -290 Descending Chicago Center
Fri 04:21:48 PM 42.6103 -86.4606 256° West 336 387 19,700 -1,355 Descending Chicago Center
Fri 04:22:50 PM 42.5814 -86.6094 255° West 339 390 17,200 -2,274 Descending Chicago Center
Fri 04:23:52 PM 42.5592 -86.7328 256° West 336 387 15,000 -1,984 Descending Chicago Center
Fri 04:24:54 PM 42.5275 -86.8456 249° West 322 371 13,100 -1,645 Descending Chicago Center
Fri 04:25:56 PM 42.4989 -86.9550 251° West 310 357 11,600 -1,452 Descending Chicago Center
Fri 04:26:58 PM 42.4689 -87.0600 249° West 302 348 10,100 -768 Descending Chicago Center
Fri 04:28:01 PM 42.4394 -87.1664 249° West 302 348 10,000 -48 Descending Chicago Center
Fri 04:29:03 PM 42.4050 -87.2933 250° West 302 348 10,000  Level Chicago Center
Fri 04:30:05 PM 42.3786 -87.3908 250° West 281 323 10,000  Level Chicago Center
Fri 04:31:07 PM 42.3528 -87.4833 249° West 279 321 10,000  Level Chicago Center
Fri 04:32:09 PM 42.2967 -87.5781 231° Southwest 281 323 10,000  Level Chicago Center
Fri 04:33:11 PM 42.2347 -87.6458 219° Southwest 286 329 10,000 -97 Level Chicago Center
Fri 04:34:13 PM 42.1711 -87.7111 217° Southwest 290 334 9,800 -550 Descending Chicago Center
Fri 04:35:00 PM 42.1167 -87.7667 217° Southwest 281 323 9,000 -449 Descending Chicago TRACON
Fri 04:36:00 PM 42.0500 -87.8000 200° South 282 325 9,000 -263 Level Chicago TRACON
Fri 04:36:54 PM 41.9833 -87.8500 209° Southwest 309 356 8,500 -750 Descending Chicago TRACON
Fri 04:38:00 PM 41.9167 -87.9000 209° Southwest 276 318 7,500 -1,190 Descending Chicago TRACON
Fri 04:38:55 PM 41.8500 -87.9333 200° South 234 269 6,100 -1,518 Descending Chicago TRACON
Fri 04:39:23 PM 41.8281 -87.9506 210° Southwest 242 278 5,400 -725 Descending Chicago Center
Fri 04:40:26 PM 41.7681 -87.9789 199° South 236 272 5,000 -432 Descending Chicago Center
Fri 04:41:28 PM 41.7472 -88.0361 244° Southwest 209 241 4,500 -484 Descending Chicago Center
Fri 04:42:30 PM 41.7783 -88.0914 307° West 198 228 4,000 -242 Descending Chicago Center
Fri 04:43:32 PM 41.8231 -88.0536 32° Northeast 178 205 4,000 -339 Level Chicago Center
Fri 04:44:34 PM 41.8578 -88.0119 42° Northeast 171 197 3,300 -809 Descending Chicago Center
Fri 04:45:01 PM 41.8833 -88.0000 19° North 159 183 2,800 -966 Descending Chicago TRACON
Fri 04:46:01 PM 41.9167 -87.9500 48° Northeast 156 180 1,900 -800 Descending Chicago TRACON
Fri 04:47:01 PM 41.9333 -87.9167 56° Northeast 129 148 1,200 -700 Descending Chicago TRACON
Fri 04:49:00 PM 41.9667 -87.9000 23° Northeast  Level FlightAware

Login

Don't have an account? Register now (free) for customized features, flight alerts, and more!